createdAt,value
2019-03-10T00:00:16.437Z,1.20
2019-03-10T00:02:43.122Z,0.90
2019-03-10T00:05:09.394Z,0.90
2019-03-10T00:07:35.670Z,1.07
2019-03-10T00:10:07.543Z,0.83
2019-03-10T00:12:33.844Z,0.80
2019-03-10T00:15:02.196Z,0.90
2019-03-10T00:17:28.467Z,0.83
2019-03-10T00:19:54.765Z,0.90
2019-03-10T00:22:21.149Z,1.20
2019-03-10T00:24:47.500Z,0.93
2019-03-10T00:27:13.890Z,0.93
2019-03-10T00:29:40.776Z,0.90
2019-03-10T00:32:07.059Z,1.00
2019-03-10T00:34:33.739Z,0.80
2019-03-10T00:37:00.105Z,1.00
2019-03-10T00:39:40.743Z,0.90
2019-03-10T00:42:37.443Z,0.90
2019-03-10T00:45:45.735Z,1.00
2019-03-10T00:48:57.731Z,0.93
2019-03-10T00:52:02.856Z,1.23
2019-03-10T00:54:29.403Z,0.90
2019-03-10T00:56:55.884Z,1.07
2019-03-10T00:59:22.369Z,1.00
2019-03-10T01:01:48.652Z,0.90
2019-03-10T01:04:15.531Z,0.97
2019-03-10T01:06:42.162Z,1.10
2019-03-10T01:09:09.543Z,1.00
2019-03-10T01:11:36.210Z,1.00
2019-03-10T01:14:02.577Z,0.97
2019-03-10T01:16:29.828Z,1.00
2019-03-10T01:18:57.028Z,1.17
2019-03-10T01:21:23.591Z,0.90
2019-03-10T01:23:50.170Z,1.20
2019-03-10T01:26:16.448Z,0.80
2019-03-10T01:28:43.062Z,0.93
2019-03-10T01:31:40.695Z,0.90
2019-03-10T01:34:33.405Z,0.90
2019-03-10T01:36:59.694Z,1.00
2019-03-10T01:39:25.970Z,1.33
2019-03-10T01:41:52.648Z,1.03
2019-03-10T01:44:19.252Z,0.87
2019-03-10T01:46:45.581Z,1.00
2019-03-10T01:49:12.431Z,0.80
2019-03-10T01:51:38.770Z,0.90
2019-03-10T01:54:05.126Z,0.80
2019-03-10T01:56:31.381Z,1.23
2019-03-10T01:58:57.611Z,0.90
2019-03-10T02:01:23.966Z,1.07
2019-03-10T02:03:50.885Z,1.07
2019-03-10T02:06:17.199Z,1.20
2019-03-10T02:08:43.443Z,0.90
2019-03-10T02:11:09.721Z,0.90
2019-03-10T02:13:35.981Z,0.80
2019-03-10T02:16:02.329Z,0.97
2019-03-10T02:18:28.594Z,0.90
2019-03-10T02:20:54.856Z,0.90
2019-03-10T02:23:21.158Z,0.90
2019-03-10T02:25:47.434Z,1.00
2019-03-10T02:28:13.690Z,0.93
2019-03-10T02:30:40.050Z,1.00
2019-03-10T02:33:06.324Z,0.90
2019-03-10T02:35:32.629Z,1.30
2019-03-10T02:37:58.871Z,0.90
2019-03-10T02:40:25.201Z,1.00
2019-03-10T02:42:51.451Z,0.90
2019-03-10T02:45:17.718Z,0.83
2019-03-10T02:47:44.021Z,0.90
2019-03-10T02:50:10.378Z,1.17
2019-03-10T02:52:36.655Z,0.97
2019-03-10T02:55:05.898Z,0.97
2019-03-10T02:57:32.205Z,0.83
2019-03-10T02:59:58.472Z,0.77
2019-03-10T03:02:24.745Z,1.10
2019-03-10T03:04:51.004Z,0.90
2019-03-10T03:07:17.247Z,0.90
2019-03-10T03:09:43.833Z,0.93
2019-03-10T03:12:10.113Z,0.83
2019-03-10T03:14:36.414Z,0.80
2019-03-10T03:17:02.892Z,0.80
2019-03-10T03:19:29.176Z,0.83
2019-03-10T03:21:55.398Z,0.90
2019-03-10T03:24:21.767Z,0.80
2019-03-10T03:26:48.025Z,0.83
2019-03-10T03:29:14.250Z,0.83
2019-03-10T03:31:40.552Z,0.70
2019-03-10T03:34:06.863Z,0.70
2019-03-10T03:36:34.823Z,0.70
2019-03-10T03:39:15.513Z,0.80
2019-03-10T03:41:41.817Z,0.80
2019-03-10T03:44:08.037Z,0.70
2019-03-10T03:46:34.289Z,0.70
2019-03-10T03:49:00.605Z,1.10
2019-03-10T03:51:26.965Z,0.80
2019-03-10T03:53:53.251Z,0.80
2019-03-10T03:56:19.505Z,0.80
2019-03-10T03:58:46.121Z,0.90
2019-03-10T04:01:17.500Z,0.70
2019-03-10T04:03:43.747Z,0.63
2019-03-10T04:06:10.027Z,0.90
2019-03-10T04:08:36.285Z,0.93
2019-03-10T04:11:02.779Z,0.70
2019-03-10T04:13:29.492Z,0.73
2019-03-10T04:15:55.781Z,0.90
2019-03-10T04:18:22.051Z,0.90
2019-03-10T04:20:48.313Z,0.70
2019-03-10T04:23:14.588Z,0.80
2019-03-10T04:25:40.869Z,0.77
2019-03-10T04:28:07.116Z,1.00
2019-03-10T04:30:33.378Z,0.80
2019-03-10T04:32:59.639Z,0.90
2019-03-10T04:35:25.897Z,0.70
2019-03-10T04:37:52.168Z,0.90
2019-03-10T04:40:18.462Z,1.03
2019-03-10T04:42:44.744Z,0.93
2019-03-10T04:45:11.095Z,0.80
2019-03-10T04:47:37.336Z,0.90
2019-03-10T04:50:06.099Z,1.00
2019-03-10T04:52:32.421Z,0.70
2019-03-10T04:55:00.603Z,0.97
2019-03-10T04:57:27.004Z,0.93
2019-03-10T04:59:53.269Z,0.90
2019-03-10T05:02:19.667Z,1.00
2019-03-10T05:04:45.943Z,1.13
2019-03-10T05:07:12.189Z,1.00
2019-03-10T05:09:38.452Z,1.00
2019-03-10T05:12:04.702Z,0.73
2019-03-10T05:14:31.005Z,0.80
2019-03-10T05:16:57.252Z,1.00
2019-03-10T05:19:23.526Z,0.90
2019-03-10T05:21:50.199Z,1.00
2019-03-10T05:24:17.077Z,0.93
2019-03-10T05:26:43.320Z,1.20
2019-03-10T05:29:09.577Z,0.97
2019-03-10T05:31:35.865Z,1.20
2019-03-10T05:34:02.897Z,1.10
2019-03-10T05:36:29.275Z,1.20
2019-03-10T05:38:55.519Z,0.90
2019-03-10T05:41:21.790Z,1.27
2019-03-10T05:43:48.631Z,1.20
2019-03-10T05:46:14.933Z,1.50
2019-03-10T05:48:41.241Z,1.10
2019-03-10T05:51:07.498Z,1.33
2019-03-10T05:53:33.761Z,1.53
2019-03-10T05:56:00.007Z,1.13
2019-03-10T05:58:26.780Z,1.40
2019-03-10T06:00:53.183Z,1.00
2019-03-10T06:03:19.443Z,1.13
2019-03-10T06:05:45.732Z,0.90
2019-03-10T06:08:13.411Z,1.20
2019-03-10T06:10:39.879Z,1.20
2019-03-10T06:13:06.163Z,1.33
2019-03-10T06:15:32.430Z,1.53
2019-03-10T06:17:58.701Z,1.40
2019-03-10T06:20:24.967Z,1.10
2019-03-10T06:22:51.455Z,1.73
2019-03-10T06:25:17.738Z,1.30
2019-03-10T06:27:43.994Z,1.17
2019-03-10T06:30:11.844Z,1.03
2019-03-10T06:32:38.260Z,1.10
2019-03-10T06:35:05.617Z,1.20
2019-03-10T06:37:31.943Z,1.30
2019-03-10T06:39:58.257Z,1.10
2019-03-10T06:42:24.551Z,1.10
2019-03-10T06:44:51.690Z,1.37
2019-03-10T06:47:18.136Z,1.10
2019-03-10T06:49:44.404Z,0.90
2019-03-10T06:52:10.658Z,0.90
2019-03-10T06:54:36.978Z,0.80
2019-03-10T06:57:03.290Z,1.00
2019-03-10T06:59:29.547Z,1.20
2019-03-10T07:01:55.811Z,1.20
2019-03-10T07:04:22.081Z,1.20
2019-03-10T07:06:48.364Z,1.20
2019-03-10T07:09:14.707Z,1.10
2019-03-10T07:11:40.920Z,1.10
2019-03-10T07:14:07.175Z,1.47
2019-03-10T07:16:36.879Z,1.20
2019-03-10T07:19:03.541Z,1.20
2019-03-10T07:21:30.152Z,1.10
2019-03-10T07:23:56.684Z,0.93
2019-03-10T07:26:23.015Z,0.90
2019-03-10T07:28:51.619Z,1.00
2019-03-10T07:31:22.757Z,1.00
2019-03-10T07:33:51.205Z,0.97
2019-03-10T07:36:28.620Z,0.90
2019-03-10T07:38:57.217Z,1.00
2019-03-10T07:41:44.154Z,0.90
2019-03-10T07:44:15.167Z,1.00
2019-03-10T07:46:43.443Z,0.97
2019-03-10T07:49:14.422Z,0.83
2019-03-10T07:51:54.586Z,0.80
2019-03-10T07:57:15.769Z,0.90
2019-03-10T07:59:50.065Z,1.00
2019-03-10T08:02:30.214Z,0.80
2019-03-10T08:04:58.405Z,1.00
2019-03-10T08:07:43.604Z,0.80
2019-03-10T08:10:20.716Z,0.93
2019-03-10T08:12:51.479Z,1.23
2019-03-10T08:15:28.732Z,0.80
2019-03-10T08:17:56.931Z,0.90
2019-03-10T08:20:28.002Z,0.80
2019-03-10T08:23:12.952Z,0.80
2019-03-10T08:25:47.018Z,0.70
2019-03-10T08:28:15.297Z,0.70
2019-03-10T08:30:47.967Z,0.80
2019-03-10T08:33:28.539Z,0.70
2019-03-10T08:36:05.681Z,0.70
2019-03-10T08:38:50.182Z,0.70
2019-03-10T08:41:18.393Z,0.80
2019-03-10T08:44:01.774Z,0.70
2019-03-10T08:46:35.678Z,1.00
2019-03-10T08:49:22.043Z,0.90
2019-03-10T08:52:10.551Z,0.93
2019-03-10T08:54:38.737Z,0.70
2019-03-10T08:57:15.835Z,0.67
2019-03-10T09:00:00.944Z,1.00
2019-03-10T09:02:33.516Z,1.97
2019-03-10T09:05:16.970Z,0.90
2019-03-10T09:07:57.331Z,0.80
2019-03-10T09:10:28.099Z,0.93
2019-03-10T09:12:58.969Z,1.00
2019-03-10T09:15:42.594Z,0.90
2019-03-10T09:18:11.332Z,0.80
2019-03-10T09:20:51.562Z,0.70
2019-03-10T09:23:25.559Z,0.93
2019-03-10T09:25:53.815Z,0.80
2019-03-10T09:28:25.007Z,1.00
2019-03-10T09:31:09.725Z,0.90
2019-03-10T09:33:44.146Z,0.87
2019-03-10T09:36:27.654Z,1.20
2019-03-10T09:39:07.735Z,0.90
2019-03-10T09:41:38.710Z,0.80
2019-03-10T09:44:09.840Z,0.70
2019-03-10T09:46:54.784Z,0.70
2019-03-10T09:49:39.527Z,0.87
2019-03-10T09:52:11.018Z,0.83
2019-03-10T09:54:42.060Z,0.80
2019-03-10T09:57:13.070Z,0.70
2019-03-10T09:59:47.219Z,0.87
2019-03-10T10:02:18.275Z,0.90
2019-03-10T10:05:03.023Z,0.70
2019-03-10T10:07:31.218Z,1.00
2019-03-10T10:10:11.436Z,0.93
2019-03-10T10:12:45.226Z,1.20
2019-03-10T10:15:19.562Z,0.90
2019-03-10T10:17:47.741Z,0.93
2019-03-10T10:20:28.116Z,0.70
2019-03-10T10:22:56.508Z,1.00
2019-03-10T10:25:30.570Z,1.10
2019-03-10T10:28:07.463Z,0.77
2019-03-10T10:30:50.508Z,1.10
2019-03-10T10:33:21.478Z,1.20
2019-03-10T10:36:08.030Z,0.83
2019-03-10T10:38:52.871Z,0.90
2019-03-10T10:41:21.045Z,0.93
2019-03-10T10:43:49.465Z,1.00
2019-03-10T10:46:34.421Z,0.80
2019-03-10T10:49:19.364Z,1.10
2019-03-10T10:52:03.970Z,0.80
2019-03-10T10:54:47.289Z,1.10
2019-03-10T10:57:33.460Z,0.80
2019-03-10T11:00:10.230Z,0.80
2019-03-10T11:02:38.406Z,0.90
2019-03-10T11:05:14.727Z,0.83
2019-03-10T11:07:42.930Z,0.70
2019-03-10T11:10:12.230Z,0.90
2019-03-10T11:12:46.506Z,1.10
2019-03-10T11:15:31.675Z,0.83
2019-03-10T11:18:09.266Z,1.60
2019-03-10T11:20:35.500Z,1.10
2019-03-10T11:23:06.328Z,1.00
2019-03-10T11:25:46.456Z,1.33
2019-03-10T11:28:17.537Z,0.80
2019-03-10T11:30:48.328Z,4.80
2019-03-10T11:33:16.498Z,1.23
2019-03-10T11:35:50.347Z,1.20
2019-03-10T11:38:21.402Z,1.10
2019-03-10T11:40:55.468Z,0.70
2019-03-10T11:43:23.617Z,0.80
2019-03-10T11:45:54.435Z,0.83
2019-03-10T11:48:22.616Z,0.83
2019-03-10T11:51:07.520Z,0.70
2019-03-10T11:53:44.923Z,0.83
2019-03-10T11:56:19.093Z,1.07
2019-03-10T11:58:47.279Z,0.83
2019-03-10T12:01:18.311Z,1.23
2019-03-10T12:03:46.484Z,0.90
2019-03-10T12:06:31.488Z,0.70
2019-03-10T12:09:02.450Z,1.07
2019-03-10T12:11:28.764Z,1.03
2019-03-10T12:13:55.154Z,0.80
2019-03-10T12:16:22.064Z,0.90
2019-03-10T12:18:48.467Z,0.83
2019-03-10T12:21:15.048Z,1.07
2019-03-10T12:23:41.371Z,0.97
2019-03-10T12:26:07.658Z,1.03
2019-03-10T12:28:34.065Z,1.00
2019-03-10T12:31:00.742Z,0.80
2019-03-10T12:33:28.023Z,1.73
2019-03-10T12:35:54.962Z,0.87
2019-03-10T12:38:22.125Z,0.80
2019-03-10T12:40:49.434Z,0.90
2019-03-10T12:43:16.595Z,0.90
2019-03-10T12:45:45.216Z,0.70
2019-03-10T12:48:12.758Z,1.37
2019-03-10T12:50:40.725Z,0.90
2019-03-10T12:53:09.625Z,0.90
2019-03-10T12:55:38.769Z,0.80
2019-03-10T12:58:06.782Z,1.07
2019-03-10T13:00:34.730Z,0.90
2019-03-10T13:03:02.553Z,1.63
2019-03-10T13:05:30.587Z,1.00
2019-03-10T13:07:58.667Z,0.97
2019-03-10T13:10:26.965Z,0.87
2019-03-10T13:12:57.824Z,1.03
2019-03-10T13:15:26.138Z,0.90
2019-03-10T13:17:54.128Z,0.70
2019-03-10T13:20:28.524Z,1.17
2019-03-10T13:22:58.080Z,0.90
2019-03-10T13:25:31.229Z,1.00
2019-03-10T13:28:05.672Z,0.90
2019-03-10T13:30:37.756Z,1.83
2019-03-10T13:33:10.429Z,2.00
2019-03-10T13:35:42.072Z,0.93
2019-03-10T13:38:13.303Z,1.10
2019-03-10T13:40:47.545Z,3.90
2019-03-10T13:43:17.876Z,2.37
2019-03-10T13:45:48.068Z,0.90
2019-03-10T13:48:16.750Z,1.00
2019-03-10T13:50:45.333Z,0.80
2019-03-10T13:53:13.918Z,0.80
2019-03-10T13:55:44.471Z,0.80
2019-03-10T13:58:15.540Z,0.83
2019-03-10T14:00:46.651Z,0.90
2019-03-10T14:03:14.426Z,0.80
2019-03-10T14:05:42.014Z,0.80
2019-03-10T14:08:09.305Z,0.87
2019-03-10T14:10:36.815Z,1.00
2019-03-10T14:13:05.205Z,0.90
2019-03-10T14:15:33.193Z,0.93
2019-03-10T14:18:01.292Z,1.17
2019-03-10T14:20:29.824Z,0.70
2019-03-10T14:22:58.429Z,0.90
2019-03-10T14:25:27.051Z,0.80
2019-03-10T14:27:56.831Z,1.00
2019-03-10T14:30:26.614Z,0.90
2019-03-10T14:32:57.764Z,1.07
2019-03-10T14:35:26.675Z,0.90
2019-03-10T14:37:54.365Z,1.10
2019-03-10T14:40:25.959Z,0.80
2019-03-10T14:42:58.261Z,0.87
2019-03-10T14:45:28.376Z,0.73
2019-03-10T14:47:56.361Z,0.80
2019-03-10T14:50:22.858Z,0.77
2019-03-10T14:52:49.546Z,0.70
2019-03-10T14:55:20.560Z,0.80
2019-03-10T14:57:46.948Z,0.80
2019-03-10T15:00:28.746Z,0.80
2019-03-10T15:02:55.781Z,0.80
2019-03-10T15:05:22.266Z,0.80
2019-03-10T15:07:48.808Z,0.80
2019-03-10T15:10:15.971Z,0.80
2019-03-10T15:12:42.761Z,0.97
2019-03-10T15:15:22.722Z,0.70
2019-03-10T15:17:47.694Z,0.70
2019-03-10T15:20:15.770Z,0.90
2019-03-10T15:22:42.208Z,1.00
2019-03-10T15:25:18.953Z,0.80
2019-03-10T15:27:45.316Z,0.90
2019-03-10T15:30:19.111Z,0.80
2019-03-10T15:32:47.492Z,0.80
2019-03-10T15:35:14.049Z,0.90
2019-03-10T15:37:40.680Z,0.90
2019-03-10T15:40:13.752Z,0.73
2019-03-10T15:42:40.492Z,0.80
2019-03-10T15:45:15.223Z,0.83
2019-03-10T15:47:42.163Z,0.77
2019-03-10T15:50:37.384Z,0.80
2019-03-10T15:53:04.017Z,0.80
2019-03-10T15:55:31.083Z,0.80
2019-03-10T15:57:58.132Z,1.10
2019-03-10T16:00:26.216Z,0.80
2019-03-10T16:02:53.163Z,0.70
2019-03-10T16:05:20.053Z,0.70
2019-03-10T16:07:46.888Z,0.90
2019-03-10T16:10:14.726Z,0.93
2019-03-10T16:12:42.126Z,0.77
2019-03-10T16:15:24.226Z,0.90
2019-03-10T16:17:51.620Z,1.00
2019-03-10T16:20:19.128Z,1.00
2019-03-10T16:22:50.484Z,1.00
2019-03-10T16:25:19.380Z,1.10
2019-03-10T16:27:49.778Z,1.33
2019-03-10T16:30:28.503Z,1.07
2019-03-10T16:32:56.289Z,1.47
2019-03-10T16:35:27.684Z,1.10
2019-03-10T16:37:55.670Z,1.20
2019-03-10T16:40:27.272Z,1.10
2019-03-10T16:42:54.529Z,1.50
2019-03-10T16:45:26.707Z,1.00
2019-03-10T16:47:57.410Z,1.00
2019-03-10T16:50:27.197Z,1.07
2019-03-10T16:52:54.785Z,0.83
2019-03-10T16:55:22.737Z,1.00
2019-03-10T16:57:50.882Z,1.00
2019-03-10T17:00:20.661Z,1.07
2019-03-10T17:02:49.811Z,0.90
2019-03-10T17:05:20.641Z,1.20
2019-03-10T17:07:53.451Z,0.97
2019-03-10T17:10:23.086Z,1.40
2019-03-10T17:12:51.407Z,1.20
2019-03-10T17:15:21.066Z,1.10
2019-03-10T17:17:48.979Z,1.13
2019-03-10T17:20:17.913Z,0.93
2019-03-10T17:22:45.906Z,8.10
2019-03-10T17:25:14.758Z,2.10
2019-03-10T17:27:42.914Z,2.03
2019-03-10T17:30:19.908Z,1.60
2019-03-10T17:32:47.888Z,1.90
2019-03-10T17:35:17.272Z,1.90
2019-03-10T17:37:48.486Z,1.60
2019-03-10T17:40:22.415Z,1.30
2019-03-10T17:42:50.913Z,1.40
2019-03-10T17:45:20.806Z,1.87
2019-03-10T17:47:48.789Z,1.83
2019-03-10T17:50:17.911Z,5.40
2019-03-10T17:52:46.497Z,3.33
2019-03-10T17:55:22.719Z,2.37
2019-03-10T17:57:50.603Z,1.73
2019-03-10T18:00:21.628Z,2.40
2019-03-10T18:02:49.481Z,1.43
2019-03-10T18:05:17.335Z,1.50
2019-03-10T18:07:45.302Z,1.37
2019-03-10T18:10:16.320Z,1.50
2019-03-10T18:12:44.197Z,1.40
2019-03-10T18:15:14.317Z,1.97
2019-03-10T18:17:42.420Z,1.20
2019-03-10T18:20:21.465Z,1.40
2019-03-10T18:22:49.579Z,1.43
2019-03-10T18:25:17.523Z,1.77
2019-03-10T18:27:46.034Z,1.67
2019-03-10T18:30:20.912Z,1.97
2019-03-10T18:32:49.018Z,1.70
2019-03-10T18:35:17.152Z,1.87
2019-03-10T18:37:48.255Z,1.40
2019-03-10T18:40:26.576Z,1.80
2019-03-10T18:42:54.695Z,1.70
2019-03-10T18:45:23.107Z,1.97
2019-03-10T18:47:51.449Z,2.13
2019-03-10T18:50:27.504Z,1.90
2019-03-10T18:52:55.632Z,2.73
2019-03-10T18:55:24.002Z,1.93
2019-03-10T18:57:53.947Z,1.80
2019-03-10T19:00:27.799Z,1.73
2019-03-10T19:02:56.245Z,1.60
2019-03-10T19:05:25.885Z,1.70
2019-03-10T19:07:53.910Z,2.20
2019-03-10T19:10:22.560Z,1.50
2019-03-10T19:12:50.560Z,1.60
2019-03-10T19:15:30.358Z,2.73
2019-03-10T19:17:58.533Z,1.57
2019-03-10T19:20:26.525Z,2.10
2019-03-10T19:22:54.491Z,1.60
2019-03-10T19:25:22.972Z,1.40
2019-03-10T19:27:50.957Z,1.73
2019-03-10T19:30:23.222Z,2.00
2019-03-10T19:32:51.272Z,2.80
2019-03-10T19:35:19.802Z,1.77
2019-03-10T19:37:49.587Z,2.00
2019-03-10T19:40:22.759Z,2.30
2019-03-10T19:42:50.858Z,2.17
2019-03-10T19:45:20.250Z,1.90
2019-03-10T19:47:48.459Z,2.40
2019-03-10T19:50:20.800Z,2.30
2019-03-10T19:52:49.010Z,2.00
2019-03-10T19:55:16.973Z,2.20
2019-03-10T19:57:45.626Z,2.20
2019-03-10T20:00:34.950Z,2.30
2019-03-10T20:03:02.884Z,2.10
2019-03-10T20:05:30.943Z,2.63
2019-03-10T20:07:59.100Z,1.70
2019-03-10T20:10:27.106Z,1.80
2019-03-10T20:12:55.030Z,1.90
2019-03-10T20:15:26.383Z,2.37
2019-03-10T20:17:54.322Z,1.70
2019-03-10T20:20:34.970Z,1.57
2019-03-10T20:23:04.721Z,2.10
2019-03-10T20:25:32.651Z,1.97
2019-03-10T20:28:00.705Z,2.00
2019-03-10T20:30:28.706Z,2.10
2019-03-10T20:32:56.683Z,1.70
2019-03-10T20:35:24.674Z,2.23
2019-03-10T20:37:52.574Z,2.37
2019-03-10T20:40:22.716Z,3.37
2019-03-10T20:42:50.688Z,3.20
2019-03-10T20:45:18.605Z,3.30
2019-03-10T20:47:46.816Z,3.27
2019-03-10T20:50:16.646Z,3.30
2019-03-10T20:52:44.653Z,3.47
2019-03-10T20:55:13.461Z,3.70
2019-03-10T20:57:41.987Z,3.80
2019-03-10T21:00:19.441Z,3.77
2019-03-10T21:02:47.473Z,3.10
2019-03-10T21:05:15.593Z,3.57
2019-03-10T21:07:43.590Z,3.87
2019-03-10T21:10:22.374Z,2.90
2019-03-10T21:12:50.513Z,3.43
2019-03-10T21:15:26.232Z,3.00
2019-03-10T21:17:54.576Z,3.53
2019-03-10T21:20:24.096Z,2.00
2019-03-10T21:22:52.120Z,2.60
2019-03-10T21:25:26.929Z,1.90
2019-03-10T21:27:55.149Z,2.80
2019-03-10T21:30:27.219Z,2.90
2019-03-10T21:32:55.216Z,2.13
2019-03-10T21:35:23.130Z,1.60
2019-03-10T21:37:51.116Z,1.50
2019-03-10T21:40:35.345Z,1.80
2019-03-10T21:43:03.404Z,1.87
2019-03-10T21:45:31.031Z,1.80
2019-03-10T21:47:58.175Z,1.63
2019-03-10T21:50:24.748Z,1.83
2019-03-10T21:52:51.129Z,2.00
2019-03-10T21:55:17.844Z,2.27
2019-03-10T21:57:44.554Z,1.70
2019-03-10T22:00:18.204Z,1.13
2019-03-10T22:02:44.756Z,1.83
2019-03-10T22:05:12.939Z,2.10
2019-03-10T22:07:39.200Z,1.77
2019-03-10T22:10:25.766Z,1.47
2019-03-10T22:12:43.580Z,1.53
2019-03-10T22:15:17.599Z,1.50
2019-03-10T22:17:43.978Z,2.20
2019-03-10T22:20:16.072Z,1.90
2019-03-10T22:22:48.456Z,1.90
2019-03-10T22:25:13.341Z,2.10
2019-03-10T22:27:39.812Z,2.53
2019-03-10T22:30:23.660Z,2.20
2019-03-10T22:32:50.049Z,3.13
2019-03-10T22:35:16.512Z,2.90
2019-03-10T22:37:42.999Z,2.70
2019-03-10T22:40:22.097Z,2.73
2019-03-10T22:42:48.375Z,1.90
2019-03-10T22:45:16.363Z,2.47
2019-03-10T22:47:42.819Z,2.17
2019-03-10T22:50:13.388Z,1.77
2019-03-10T22:52:39.868Z,2.73
2019-03-10T22:55:08.938Z,2.60
2019-03-10T22:57:35.291Z,1.93
2019-03-10T23:00:17.838Z,2.37
2019-03-10T23:02:44.091Z,1.80
2019-03-10T23:05:10.493Z,2.17
2019-03-10T23:07:36.795Z,1.93
2019-03-10T23:10:08.290Z,3.73
2019-03-10T23:12:34.539Z,1.80
2019-03-10T23:15:03.300Z,2.20
2019-03-10T23:17:29.544Z,2.00
2019-03-10T23:19:55.803Z,1.60
2019-03-10T23:22:22.084Z,1.97
2019-03-10T23:24:48.371Z,2.03
2019-03-10T23:27:14.624Z,1.90
2019-03-10T23:29:40.982Z,2.50
2019-03-10T23:32:07.274Z,2.60
2019-03-10T23:34:33.527Z,1.87
2019-03-10T23:36:59.812Z,2.20
2019-03-10T23:39:26.099Z,1.73
2019-03-10T23:41:52.378Z,2.10
2019-03-10T23:44:18.629Z,2.20
2019-03-10T23:46:44.890Z,2.07
2019-03-10T23:49:11.364Z,2.23
2019-03-10T23:51:37.634Z,1.77
2019-03-10T23:54:03.913Z,2.00
2019-03-10T23:56:30.285Z,1.73
2019-03-10T23:58:56.550Z,2.27
